Thunder radar more information blitzortung!


Radar de pluja more information rain snow radar


Visita la nostra xarxa de llocs de meteo:

Template documentation
and downloads

And another site



No particular awareness of the weather is required.    There are no Weather-warnings

Pagina Historial Weather Underground text

Diari Resum Octubre 18, 2017 Unitats:  Imperial    Mètric   Tant
« Previous Dia
SegĂźent Dia »
Diari Setmana Mensual Anual Personalitzada
  Maxima: Minima: Media:
Temperatura: TemperatureC °F 13.9 °F 17.9 °F
Punt de rosada: DewpointC °F 10.4 °F 13.8 °F
Humitat: Humidity % 59 % 78 %
Wind Speed: WindSpeedKMH mph 0.0 mph 6.2 mph
RĂ fegues de vent: WindSpeedGustKMH mph - -
Vent:- - East
Pression baro: PressurehPa in 1010.0 in -
Precipitacions: 11.7 in    
Historical Graphs
 
 
Dades de taula per Octubre 18, 2017
Temps Temperatura Punt de rosada Pression baro Vent Wind Speed RĂ fegues de vent Humitat Rainfall Rate (Hourly)
TemperatureC °F DewpointC °F PressurehPa in Calm     Humidity % HourlyPrecipMM in
00:05 16.1 °F 13.0 °F 1017.8 in NE 1.6 mph 4.8 mph 82 % 0.0 in
00:15 16.1 °F 13.0 °F 1017.8 in Calm   1.6 mph 82 % 0.0 in
00:25 16.2 °F 13.1 °F 1017.8 in Calm     82 % 0.0 in
00:35 16.2 °F 13.1 °F 1016.8 in Calm     82 % 0.0 in
00:45 16.2 °F 13.1 °F 1016.8 in Calm     82 % 0.0 in
00:55 16.1 °F 13.0 °F 1016.8 in WNW 1.6 mph 1.6 mph 82 % 0.0 in
01:10 16.1 °F 13.0 °F 1015.8 in WNW 1.6 mph 1.6 mph 82 % 0.0 in
01:20 16.1 °F 13.0 °F 1015.8 in Calm   1.6 mph 82 % 0.0 in
01:30 15.9 °F 12.8 °F 1015.8 in Calm   3.2 mph 82 % 0.0 in
01:40 15.8 °F 12.7 °F 1015.8 in Calm     82 % 0.0 in
01:50 15.9 °F 12.8 °F 1015.8 in South 1.6 mph 1.6 mph 82 % 0.0 in
02:00 15.9 °F 13.0 °F 1015.8 in Calm     83 % 0.0 in
02:10 16.0 °F 13.1 °F 1015.8 in Calm     83 % 0.0 in
02:20 16.0 °F 13.1 °F 1015.8 in South 1.6 mph 1.6 mph 83 % 0.0 in
02:30 16.0 °F 13.1 °F 1015.8 in SSE 1.6 mph 1.6 mph 83 % 0.0 in
02:40 15.9 °F 13.0 °F 1015.8 in East 1.6 mph 3.2 mph 83 % 0.0 in
02:50 15.9 °F 13.0 °F 1015.8 in Calm   1.6 mph 83 % 0.0 in
03:00 15.8 °F 12.9 °F 1015.8 in Calm     83 % 0.0 in
03:10 15.9 °F 13.2 °F 1015.8 in West 1.6 mph 3.2 mph 84 % 0.0 in
03:20 15.8 °F 13.1 °F 1015.8 in Calm     84 % 0.0 in
03:30 15.6 °F 12.9 °F 1015.8 in ENE 3.2 mph 3.2 mph 84 % 0.0 in
03:40 15.4 °F 12.7 °F 1015.8 in SSW 1.6 mph 3.2 mph 84 % 0.0 in
03:50 15.5 °F 12.8 °F 1015.8 in Calm   1.6 mph 84 % 0.0 in
04:00 15.8 °F 13.1 °F 1015.8 in Calm   3.2 mph 84 % 0.0 in
04:10 16.0 °F 13.5 °F 1015.8 in ENE 1.6 mph 3.2 mph 85 % 0.0 in
04:20 16.4 °F 13.7 °F 1015.8 in NE 3.2 mph 4.8 mph 84 % 0.0 in
04:30 16.8 °F 14.1 °F 1015.8 in NE 1.6 mph 3.2 mph 84 % 0.0 in
04:40 17.3 °F 14.2 °F 1015.8 in NE 1.6 mph 3.2 mph 82 % 0.0 in
04:50 17.9 °F 14.6 °F 1015.8 in Calm   1.6 mph 81 % 0.0 in
05:00 18.3 °F 14.6 °F 1015.8 in East 1.6 mph 3.2 mph 79 % 0.0 in
05:10 18.1 °F 14.2 °F 1015.8 in NE 1.6 mph 3.2 mph 78 % 0.0 in
05:20 18.0 °F 14.1 °F 1015.8 in NNE 4.8 mph 6.4 mph 78 % 0.0 in
05:30 18.1 °F 14.2 °F 1014.8 in NE 3.2 mph 6.4 mph 78 % 0.0 in
10:33 18.3 °F 14.4 °F 1014.8 in East 4.7 mph 4.7 mph 78 % 0.0 in
10:34 18.3 °F 14.4 °F 1014.8 in East 4.7 mph 4.7 mph 78 % 0.0 in
10:36 18.4 °F 14.5 °F 1014.8 in NE 4.2 mph 4.2 mph 78 % 0.0 in
10:41 18.5 °F 14.6 °F 1015.8 in ENE 7.4 mph 7.4 mph 78 % 0.0 in
10:46 18.7 °F 14.6 °F 1015.8 in NNE 5.6 mph 5.6 mph 77 % 0.0 in
10:51 19.0 °F 14.7 °F 1015.8 in NNE 3.7 mph 3.7 mph 76 % 0.0 in
10:56 19.5 °F 15.2 °F 1014.8 in NW 3.7 mph   76 % 0.0 in
11:01 20.0 °F 15.2 °F 1014.8 in ESE 3.5 mph 3.5 mph 74 % 0.0 in
11:06 20.4 °F 15.6 °F 1014.8 in ENE 3.9 mph 3.9 mph 74 % 0.0 in
11:11 20.7 °F 15.7 °F 1015.8 in NNE 5.6 mph 5.6 mph 73 % 0.0 in
11:16 20.8 °F 15.6 °F 1015.8 in East 5.3 mph 5.3 mph 72 % 0.0 in
11:21 20.9 °F 15.7 °F 1015.8 in NNE 5.6 mph 5.6 mph 72 % 0.0 in
11:26 21.0 °F 15.6 °F 1015.8 in ESE 6.9 mph 6.9 mph 71 % 0.0 in
11:27 20.9 °F 15.4 °F 1015.8 in ENE 7.4 mph 7.4 mph 71 % 0.0 in
11:32 21.0 °F 15.8 °F 1015.8 in ENE 7.4 mph 7.4 mph 72 % 0.0 in
11:37 21.0 °F 15.6 °F 1015.8 in ESE 3.7 mph 3.7 mph 71 % 0.0 in
11:42 21.0 °F 15.3 °F 1015.8 in East 9.3 mph 9.3 mph 70 % 0.0 in
11:47 21.1 °F 15.6 °F 1015.8 in ENE 7.9 mph 7.9 mph 71 % 0.0 in
11:52 21.2 °F 15.7 °F 1015.8 in ENE 7.4 mph 7.4 mph 71 % 0.0 in
11:57 21.3 °F 15.8 °F 1014.8 in East 7.4 mph 7.4 mph 71 % 0.0 in
12:02 21.4 °F 15.7 °F 1014.8 in ENE 3.7 mph 3.7 mph 70 % 0.0 in
12:07 21.2 °F 15.5 °F 1014.8 in ESE 11.1 mph 11.1 mph 70 % 0.0 in
12:12 21.7 °F 15.8 °F 1014.8 in ESE 9.3 mph 9.3 mph 69 % 0.0 in
12:17 21.8 °F 15.8 °F 1014.8 in ESE 9.7 mph 9.7 mph 69 % 0.0 in
12:22 21.9 °F 16.2 °F 1014.8 in East 7.4 mph 7.4 mph 70 % 0.0 in
12:27 22.4 °F 15.9 °F 1014.8 in ESE 9.3 mph 9.3 mph 67 % 0.0 in
12:32 22.5 °F 15.8 °F 1014.8 in ESE 11.1 mph 11.1 mph 66 % 0.0 in
12:37 22.3 °F 15.4 °F 1014.8 in ENE 14.8 mph 14.8 mph 65 % 0.0 in
12:42 22.3 °F 15.2 °F 1014.8 in ESE 13.0 mph 13.0 mph 64 % 0.0 in
12:47 22.6 °F 15.4 °F 1014.8 in ESE 14.8 mph 14.8 mph 64 % 0.0 in
12:52 22.8 °F 15.4 °F 1014.8 in ENE 13.0 mph 13.0 mph 63 % 0.0 in
12:57 22.7 °F 15.1 °F 1013.8 in East 18.5 mph 18.5 mph 62 % 0.0 in
13:02 22.7 °F 15.1 °F 1013.8 in ESE 16.7 mph 16.7 mph 62 % 0.0 in
13:07 22.7 °F 14.8 °F 1013.8 in ESE 11.9 mph 11.9 mph 61 % 0.0 in
13:12 23.1 °F 15.2 °F 1012.8 in ESE 14.8 mph 14.8 mph 61 % 0.0 in
13:17 22.7 °F 14.6 °F 1012.8 in ESE 13.0 mph 13.0 mph 60 % 0.0 in
13:22 22.5 °F 14.3 °F 1012.8 in ESE 7.4 mph 7.4 mph 60 % 0.0 in
13:27 22.6 °F 14.4 °F 1013.8 in East 16.7 mph 16.7 mph 60 % 0.0 in
13:32 22.6 °F 14.4 °F 1013.8 in East 14.8 mph 14.8 mph 60 % 0.0 in
13:37 22.5 °F 14.3 °F 1013.8 in SE 13.7 mph 13.7 mph 60 % 0.0 in
13:42 22.6 °F 14.7 °F 1014.8 in ESE 8.7 mph 8.7 mph 61 % 0.0 in
13:47 22.5 °F 14.3 °F 1014.8 in ENE 16.7 mph 16.7 mph 60 % 0.0 in
13:52 22.4 °F 14.0 °F 1014.8 in SE 14.8 mph 14.8 mph 59 % 0.0 in
13:57 22.4 °F 14.0 °F 1014.8 in ESE 9.3 mph 9.3 mph 59 % 0.0 in
14:02 22.2 °F 13.8 °F 1014.8 in ESE 13.0 mph 13.0 mph 59 % 0.0 in
14:07 22.1 °F 13.7 °F 1014.8 in ESE 9.3 mph 9.3 mph 59 % 0.0 in
14:12 22.1 °F 13.7 °F 1013.8 in ESE 9.3 mph 9.3 mph 59 % 0.0 in
14:17 22.1 °F 13.9 °F 1013.8 in ESE 11.1 mph 11.1 mph 60 % 0.0 in
14:22 21.8 °F 13.9 °F 1013.8 in ESE 12.2 mph 12.2 mph 61 % 0.0 in
14:27 21.7 °F 14.1 °F 1013.8 in ENE 9.3 mph 9.3 mph 62 % 0.0 in
14:32 21.7 °F 14.3 °F 1013.8 in ENE 9.5 mph 9.5 mph 63 % 0.0 in
14:37 21.6 °F 14.5 °F 1013.8 in ENE 16.7 mph 16.7 mph 64 % 0.0 in
14:42 21.4 °F 14.6 °F 1012.8 in ESE 16.7 mph 16.7 mph 65 % 0.0 in
14:47 21.3 °F 14.7 °F 1012.8 in ESE 13.0 mph 13.0 mph 66 % 0.0 in
14:52 21.5 °F 14.9 °F 1012.8 in NE 9.3 mph 9.3 mph 66 % 0.0 in
14:57 21.5 °F 14.9 °F 1011.7 in ESE 9.3 mph 9.3 mph 66 % 0.0 in
15:02 21.5 °F 14.9 °F 1011.7 in East 9.3 mph 9.3 mph 66 % 0.0 in
15:07 21.4 °F 14.6 °F 1011.7 in SSE 13.0 mph 13.0 mph 65 % 0.0 in
15:12 21.4 °F 14.6 °F 1011.7 in ENE 13.0 mph 13.0 mph 65 % 0.0 in
15:17 21.4 °F 14.6 °F 1011.7 in ESE 13.0 mph 13.0 mph 65 % 0.0 in
15:22 21.4 °F 14.8 °F 1011.7 in East 13.0 mph 13.0 mph 66 % 0.0 in
15:27 21.4 °F 14.8 °F 1011.7 in SE 11.1 mph 11.1 mph 66 % 0.0 in
15:32 21.3 °F 14.4 °F 1011.7 in ESE 12.2 mph 12.2 mph 65 % 0.0 in
15:37 21.2 °F 14.8 °F 1011.7 in SE 13.0 mph 13.0 mph 67 % 0.0 in
15:42 21.2 °F 14.8 °F 1011.7 in ENE 7.4 mph 7.4 mph 67 % 0.0 in
15:47 21.1 °F 14.7 °F 1011.7 in East 9.3 mph 9.3 mph 67 % 0.0 in
15:52 21.1 °F 14.7 °F 1011.7 in East 11.1 mph 11.1 mph 67 % 0.0 in
15:57 21.0 °F 14.9 °F 1011.7 in ESE 7.4 mph 7.4 mph 68 % 0.0 in
16:02 21.0 °F 15.1 °F 1011.7 in ENE 11.1 mph 11.1 mph 69 % 0.0 in
16:07 20.8 °F 15.1 °F 1011.7 in ESE 11.1 mph 11.1 mph 70 % 0.0 in
16:12 20.5 °F 14.8 °F 1011.7 in East 14.8 mph 14.8 mph 70 % 0.0 in
16:17 20.5 °F 15.1 °F 1011.7 in ESE 15.6 mph 15.6 mph 71 % 0.0 in
16:22 20.5 °F 15.3 °F 1011.7 in ESE 9.3 mph 9.3 mph 72 % 0.0 in
16:27 20.5 °F 15.3 °F 1011.7 in ESE 11.1 mph 11.1 mph 72 % 0.0 in
16:32 20.5 °F 15.5 °F 1011.7 in SE 5.6 mph 5.6 mph 73 % 0.0 in
16:37 20.4 °F 15.2 °F 1011.7 in ESE 14.8 mph 14.8 mph 72 % 0.0 in
16:42 20.3 °F 15.1 °F 1011.7 in ESE 16.7 mph 16.7 mph 72 % 0.0 in
16:43 20.3 °F 15.1 °F 1011.7 in SE 16.7 mph 16.7 mph 72 % 0.0 in
16:48 20.2 °F 15.0 °F 1011.7 in ESE 9.3 mph 9.3 mph 72 % 0.0 in
16:53 20.1 °F 15.1 °F 1011.7 in ENE 9.3 mph 9.3 mph 73 % 0.0 in
16:58 20.0 °F 15.0 °F 1011.7 in ESE 9.0 mph 9.0 mph 73 % 0.0 in
17:03 20.0 °F 15.2 °F 1011.7 in ENE 13.0 mph 13.0 mph 74 % 0.0 in
17:08 20.1 °F 15.3 °F 1011.7 in ESE 6.1 mph 6.1 mph 74 % 0.0 in
17:13 20.1 °F 15.3 °F 1011.7 in East 8.7 mph 8.7 mph 74 % 0.0 in
17:18 20.0 °F 15.4 °F 1011.7 in ESE 9.3 mph 9.3 mph 75 % 0.0 in
17:23 19.7 °F 15.3 °F 1011.7 in ENE 9.3 mph 9.3 mph 76 % 0.0 in
17:28 19.5 °F 15.2 °F 1010.7 in East 7.4 mph 7.4 mph 76 % 0.0 in
17:33 19.3 °F 15.2 °F 1010.7 in NW 8.7 mph 8.7 mph 77 % 0.0 in
17:38 19.2 °F 15.1 °F 1010.7 in ENE 4.7 mph 4.7 mph 77 % 0.0 in
17:43 19.1 °F 14.9 °F 1010.0 in NNE 9.3 mph 9.3 mph 77 % 0.0 in
17:48 19.1 °F 14.9 °F 1010.0 in ENE 9.3 mph 9.3 mph 77 % 0.0 in
17:53 19.0 °F 14.9 °F 1010.0 in NE 6.9 mph 6.9 mph 77 % 0.0 in
17:58 19.0 °F 14.9 °F 1010.7 in NNE 8.7 mph 8.7 mph 77 % 0.0 in
18:03 19.0 °F 14.9 °F 1010.7 in NNE 7.4 mph 7.4 mph 77 % 0.0 in
18:08 19.0 °F 14.9 °F 1010.7 in ENE 7.4 mph 7.4 mph 77 % 0.0 in
18:13 19.1 °F 14.9 °F 1010.0 in East 6.9 mph 6.9 mph 77 % 0.0 in
18:18 19.0 °F 14.9 °F 1010.0 in NNE 10.0 mph 10.0 mph 77 % 0.0 in
18:23 19.0 °F 14.9 °F 1010.0 in East 2.6 mph   77 % 0.0 in
18:28 19.1 °F 15.2 °F 1010.0 in SE 7.4 mph 7.4 mph 78 % 0.0 in
18:33 19.1 °F 15.4 °F 1010.0 in ENE 5.0 mph 5.0 mph 79 % 0.0 in
18:38 19.1 °F 15.4 °F 1010.0 in SE 5.8 mph 5.8 mph 79 % 0.0 in
18:43 19.1 °F 15.6 °F 1010.7 in SW 5.6 mph 6.1 mph 80 % 0.0 in
18:48 17.8 °F 13.7 °F 1010.7 in SSW 16.7 mph 16.7 mph 77 % 0.0 in
18:53 16.5 °F 12.3 °F 1010.7 in WSW 14.8 mph 14.8 mph 76 % 0.0 in
18:58 15.2 °F 11.2 °F 1011.7 in SW 13.0 mph 13.0 mph 77 % 1.0 in
19:03 14.5 °F 10.7 °F 1011.7 in SSW 9.5 mph 9.5 mph 78 % 3.3 in
19:08 14.2 °F 10.4 °F 1011.7 in WSW 7.4 mph 7.4 mph 78 % 3.3 in
19:13 14.0 °F 10.4 °F 1012.8 in SW 3.9 mph 3.9 mph 79 % 3.3 in
19:18 14.0 °F 10.6 °F 1012.8 in West 3.7 mph   80 % 3.3 in
19:23 14.0 °F 10.8 °F 1012.8 in NW 3.7 mph   81 % 3.3 in
19:28 14.0 °F 11.0 °F 1012.8 in WSW 3.5 mph 3.5 mph 82 % 6.3 in
19:33 14.1 °F 11.1 °F 1012.8 in WNW 1.9 mph   82 % 6.3 in
19:38 14.2 °F 11.3 °F 1012.8 in ENE 4.2 mph 4.2 mph 83 % 7.4 in
19:43 14.0 °F 11.2 °F 1011.7 in NNE 5.6 mph 5.6 mph 83 % 7.4 in
19:48 14.0 °F 11.3 °F 1011.7 in NE 3.7 mph 3.7 mph 84 % 7.4 in
19:53 14.0 °F 11.3 °F 1011.7 in Calm     84 % 7.4 in
19:58 14.0 °F 11.5 °F 1012.8 in Calm     85 % 6.3 in
20:03 14.1 °F 11.6 °F 1012.8 in NE 3.7 mph 3.7 mph 85 % 4.1 in
20:08 14.1 °F 11.6 °F 1012.8 in NNE 3.7 mph 3.7 mph 85 % 4.1 in
20:13 13.9 °F 11.4 °F 1012.8 in NNE 9.3 mph 9.3 mph 85 % 4.1 in
20:18 13.9 °F 11.6 °F 1012.8 in NNE 5.6 mph 5.6 mph 86 % 4.1 in
20:23 13.9 °F 11.6 °F 1012.8 in NNE 9.3 mph 9.3 mph 86 % 4.1 in
20:28 13.9 °F 11.6 °F 1012.8 in NNE 9.3 mph 9.3 mph 86 % 1.0 in
20:33 13.9 °F 11.8 °F 1012.8 in NNE 5.3 mph 5.3 mph 87 % 1.0 in
20:38 14.0 °F 11.9 °F 1012.8 in ENE 7.4 mph 7.4 mph 87 % 0.0 in
20:43 13.9 °F 11.8 °F 1010.7 in NNE 9.3 mph 9.3 mph 87 % 0.0 in
20:48 14.0 °F 12.1 °F 1010.7 in NNE 4.2 mph 4.2 mph 88 % 0.0 in
20:53 14.1 °F 12.2 °F 1010.7 in Calm     88 % 0.0 in
20:58 14.2 °F 12.4 °F 1011.7 in ENE 3.7 mph 3.7 mph 89 % 0.0 in
21:03 14.2 °F 12.4 °F 1011.7 in ENE 5.6 mph 5.6 mph 89 % 0.0 in
21:08 14.2 °F 12.4 °F 1011.7 in ENE 3.7 mph 3.7 mph 89 % 0.0 in
21:13 14.2 °F 12.4 °F 1011.7 in NE 3.7 mph 3.7 mph 89 % 0.0 in
21:18 14.3 °F 12.5 °F 1011.7 in NNE 2.3 mph 2.3 mph 89 % 4.3 in
21:23 14.4 °F 12.8 °F 1011.7 in ENE 1.9 mph   90 % 4.3 in
21:28 14.4 °F 12.8 °F 1011.7 in NNE 1.9 mph   90 % 4.3 in
21:33 14.4 °F 12.8 °F 1011.7 in Calm     90 % 4.3 in
21:38 14.5 °F 12.9 °F 1011.7 in Calm     90 % 4.3 in
21:43 14.5 °F 12.9 °F 1011.7 in NNE 2.6 mph   90 % 4.3 in
21:48 14.5 °F 12.9 °F 1011.7 in NNE 3.7 mph 3.7 mph 90 % 4.3 in
21:53 14.5 °F 12.9 °F 1011.7 in NNE 3.7 mph 3.7 mph 90 % 4.3 in
21:58 14.5 °F 12.9 °F 1011.7 in NNE 5.6 mph 5.6 mph 90 % 4.3 in
22:03 14.5 °F 12.9 °F 1011.7 in Calm     90 % 4.3 in
22:08 14.5 °F 13.1 °F 1011.7 in Calm     91 % 4.3 in
22:13 14.5 °F 13.1 °F 1011.7 in Calm     91 % 4.3 in
22:18 14.6 °F 13.2 °F 1011.7 in ENE 3.7 mph   91 % 0.0 in
22:23 14.5 °F 13.1 °F 1011.7 in Calm     91 % 0.0 in
22:28 14.6 °F 13.2 °F 1011.7 in Calm     91 % 0.0 in
22:33 14.6 °F 13.2 °F 1011.7 in Calm     91 % 0.0 in
22:38 14.5 °F 13.1 °F 1011.7 in Calm     91 % 0.0 in
22:43 14.5 °F 13.1 °F 1011.7 in SW 2.6 mph   91 % 0.0 in
22:48 14.6 °F 13.2 °F 1011.7 in NNE 1.9 mph 1.9 mph 91 % 0.0 in
22:53 14.6 °F 13.3 °F 1011.7 in ENE 3.7 mph 3.7 mph 92 % 0.0 in
22:58 14.5 °F 13.2 °F 1010.7 in ESE 3.7 mph 3.7 mph 92 % 0.0 in
23:00 14.8 °F 13.8 °F 1010.0 in NE 1.6 mph 3.2 mph 94 % 0.0 in
23:04 14.5 °F 13.2 °F 1010.7 in East 2.3 mph   92 % 0.0 in
23:09 14.5 °F 13.2 °F 1010.7 in East 1.9 mph 1.9 mph 92 % 0.0 in
23:10 14.8 °F 13.8 °F 1010.0 in NE 3.2 mph 4.8 mph 94 % 0.0 in
23:14 14.6 °F 13.3 °F 1010.7 in Calm     92 % 0.0 in
23:19 14.6 °F 13.3 °F 1010.7 in NNE 3.7 mph 3.7 mph 92 % 0.0 in
23:20 14.8 °F 13.8 °F 1010.0 in NE 1.6 mph 4.8 mph 94 % 0.0 in
23:24 14.6 °F 13.3 °F 1010.7 in ESE 3.9 mph 3.9 mph 92 % 0.0 in
23:29 14.6 °F 13.3 °F 1011.7 in ESE 5.8 mph 5.8 mph 92 % 0.0 in
23:30 14.8 °F 14.0 °F 1010.0 in Calm   1.6 mph 95 % 0.0 in
23:34 14.6 °F 13.3 °F 1011.7 in Calm     92 % 0.0 in
23:39 14.6 °F 13.3 °F 1011.7 in Calm     92 % 0.0 in
23:40 14.9 °F 14.1 °F 1010.0 in Calm     95 % 1.0 in
23:44 14.6 °F 13.3 °F 1010.7 in Calm     92 % 0.0 in
23:49 14.6 °F 13.3 °F 1010.7 in West 3.9 mph 3.9 mph 92 % 0.0 in
23:50 14.9 °F 14.1 °F 1010.0 in NNE 3.2 mph 6.4 mph 95 % 1.0 in
23:54 14.6 °F 13.2 °F 1010.7 in Calm     91 % 0.0 in
23:59 14.6 °F 13.3 °F 1011.7 in Calm     92 % 0.0 in
Meteo Sesrovires
Elogis d' Weather Underground - 2 mb

Guio original per  Jim McMurry - jmcmurry@mwt.net Adaptat per a la plantilla per  Wim van der Kuil - Leuven-Template.eu

Trobareu la nostra informacio del temps tambe a:

Weather Underground

AWEKAS